Time;durP1;ratioP1;P1;durP2;ratioP2;P2;SDS_P1;SDS_P2;PMS_P1;PMS_P2;Temp;Humidity;BMP_temperature;BMP_pressure;BME280_temperature;BME280_humidity;BME280_pressure;Samples;Min_cycle;Max_cycle;Signal;HPM_P1;HPM_P2
2022/07/06 00:01:55;;;;;;;27.27;25.67;;;19.40;65.40;;;;;;5008567;28;20467;-68
2022/07/06 00:04:22;;;;;;;27.80;25.73;;;19.40;64.10;;;;;;5008892;28;20480;-68
2022/07/06 00:06:51;;;;;;;26.77;25.17;;;19.40;64.60;;;;;;5008292;28;20560;-68
2022/07/06 00:09:18;;;;;;;28.03;26.13;;;19.40;63.40;;;;;;5008568;28;20619;-68
2022/07/06 00:11:45;;;;;;;27.87;26.27;;;19.40;64.10;;;;;;5007285;28;20910;-68
2022/07/06 00:14:12;;;;;;;27.43;25.73;;;19.40;65.10;;;;;;5007092;28;20536;-68
2022/07/06 00:16:39;;;;;;;26.63;25.13;;;19.40;64.60;;;;;;5004216;28;20809;-68
2022/07/06 00:19:06;;;;;;;27.93;26.23;;;19.40;64.90;;;;;;5006886;28;20477;-68
2022/07/06 00:21:33;;;;;;;28.23;26.63;;;19.40;65.30;;;;;;5007288;28;20461;-68
2022/07/06 00:24:02;;;;;;;27.70;26.20;;;19.30;65.40;;;;;;5007949;28;20473;-68
2022/07/06 00:26:28;;;;;;;27.50;25.70;;;19.30;65.80;;;;;;5007204;28;20504;-68
2022/07/06 00:28:55;;;;;;;28.43;26.53;;;19.40;65.10;;;;;;5008896;28;20476;-68
2022/07/06 00:31:22;;;;;;;27.50;26.00;;;19.40;65.60;;;;;;5007198;28;20830;-68
2022/07/06 00:33:49;;;;;;;27.30;25.70;;;19.30;65.80;;;;;;5003006;28;20457;-68
2022/07/06 00:36:16;;;;;;;27.43;25.93;;;19.30;65.90;;;;;;5005269;28;20560;-68
2022/07/06 00:38:43;;;;;;;27.80;26.20;;;19.30;65.70;;;;;;5007153;28;20481;-68
2022/07/06 00:41:13;;;;;;;28.30;26.60;;;19.30;65.80;;;;;;5006561;28;20457;-68
2022/07/06 00:43:51;;;;;;;27.63;26.13;;;19.20;66.30;;;;;;5005708;28;20483;-67
2022/07/06 00:46:18;;;;;;;26.90;25.30;;;19.10;66.40;;;;;;5004142;28;20472;-67
2022/07/06 00:48:45;;;;;;;27.47;25.97;;;19.10;66.40;;;;;;5007732;28;20601;-68
2022/07/06 00:51:14;;;;;;;28.30;26.60;;;19.10;66.50;;;;;;5007431;28;20473;-68
2022/07/06 00:53:43;;;;;;;27.53;25.73;;;19.00;66.50;;;;;;5009250;28;20548;-68
2022/07/06 00:56:12;;;;;;;27.43;25.93;;;19.00;66.40;;;;;;5007374;28;20459;-68
2022/07/06 00:58:40;;;;;;;26.73;25.13;;;19.00;66.30;;;;;;5007953;28;20564;-69
2022/07/06 01:01:06;;;;;;;26.80;25.30;;;18.90;66.50;;;;;;5006569;28;20544;-68
2022/07/06 01:03:33;;;;;;;27.73;26.13;;;18.80;66.80;;;;;;5005743;28;21178;-68
2022/07/06 01:06:01;;;;;;;27.53;26.03;;;18.80;67.00;;;;;;5006096;28;20484;-68
2022/07/06 01:08:29;;;;;;;28.30;26.60;;;18.80;67.00;;;;;;5005494;28;20481;-71
2022/07/06 01:10:56;;;;;;;27.43;25.80;;;18.80;67.20;;;;;;5006452;28;20523;-70
2022/07/06 01:13:26;;;;;;;28.30;26.50;;;18.70;67.40;;;;;;5007677;28;20575;-74
2022/07/06 01:15:54;;;;;;;28.30;26.60;;;18.80;67.30;;;;;;5003768;28;20457;-71
2022/07/06 01:18:21;;;;;;;28.80;26.97;;;18.70;67.30;;;;;;5004768;28;20481;-70
2022/07/06 01:20:49;;;;;;;28.30;26.60;;;18.70;67.30;;;;;;5006338;28;20536;-70
2022/07/06 01:23:16;;;;;;;29.07;27.13;;;18.70;67.40;;;;;;5006858;28;20556;-70
2022/07/06 01:25:43;;;;;;;28.57;26.87;;;18.70;67.50;;;;;;5004508;28;20481;-72
2022/07/06 01:28:10;;;;;;;28.00;26.30;;;18.70;67.30;;;;;;5007557;28;20484;-70
2022/07/06 01:30:37;;;;;;;28.17;26.47;;;18.70;66.80;;;;;;5007816;28;20457;-73
2022/07/06 01:33:04;;;;;;;26.80;25.30;;;18.70;66.10;;;;;;5006492;28;20460;-70
2022/07/06 01:35:34;;;;;;;27.37;25.70;;;18.70;66.00;;;;;;5006581;28;20580;-70
2022/07/06 01:38:02;;;;;;;27.40;25.40;;;18.70;65.70;;;;;;5006222;28;20500;-73
2022/07/06 01:40:29;;;;;;;26.77;25.27;;;18.70;65.20;;;;;;5001513;28;20461;-70
2022/07/06 01:42:56;;;;;;;27.40;25.70;;;18.80;65.60;;;;;;5005818;28;20449;-70
2022/07/06 01:45:23;;;;;;;27.77;26.20;;;18.80;65.10;;;;;;5005140;28;20998;-70
2022/07/06 01:47:50;;;;;;;27.87;26.17;;;18.80;64.00;;;;;;5006860;28;20502;-68
2022/07/06 01:50:17;;;;;;;28.80;26.80;;;18.80;64.30;;;;;;5003941;28;20464;-68
2022/07/06 01:52:43;;;;;;;27.93;26.43;;;18.80;64.10;;;;;;5005371;28;20461;-68
2022/07/06 01:55:12;;;;;;;28.03;26.43;;;18.80;63.90;;;;;;5005765;28;20517;-67
2022/07/06 01:57:39;;;;;;;27.90;26.40;;;18.80;63.70;;;;;;5002820;28;20557;-68
2022/07/06 02:00:07;;;;;;;27.13;25.43;;;18.80;63.70;;;;;;5005814;28;20548;-68
2022/07/06 02:02:34;;;;;;;27.40;25.80;;;18.80;63.40;;;;;;5003296;28;21088;-68
2022/07/06 02:05:01;;;;;;;26.93;25.30;;;18.70;63.40;;;;;;5004354;28;20480;-68
2022/07/06 02:07:28;;;;;;;26.40;24.90;;;18.80;62.90;;;;;;5007785;28;20568;-68
2022/07/06 02:09:55;;;;;;;26.83;25.03;;;18.70;63.10;;;;;;5006171;28;20560;-71
2022/07/06 02:12:23;;;;;;;28.10;26.50;;;18.70;63.60;;;;;;5012344;28;20497;-68
2022/07/06 02:14:50;;;;;;;27.83;26.10;;;18.80;63.30;;;;;;4994939;28;20924;-68
2022/07/06 02:17:17;;;;;;;27.70;26.03;;;18.80;63.00;;;;;;5004078;28;20598;-68
2022/07/06 02:19:44;;;;;;;26.90;25.20;;;18.70;63.10;;;;;;5007269;28;21058;-68
2022/07/06 02:22:11;;;;;;;27.10;25.60;;;18.70;63.30;;;;;;5008456;28;20511;-68
2022/07/06 02:24:38;;;;;;;28.10;26.40;;;18.60;63.60;;;;;;5004140;28;20485;-68
2022/07/06 02:27:05;;;;;;;27.53;25.93;;;18.60;63.50;;;;;;5008920;28;20461;-68
2022/07/06 02:29:33;;;;;;;27.50;25.80;;;18.60;63.60;;;;;;5001863;28;20470;-68
2022/07/06 02:32:00;;;;;;;27.97;26.27;;;18.50;63.80;;;;;;5005402;28;20461;-68
2022/07/06 02:34:27;;;;;;;27.37;25.57;;;18.50;64.00;;;;;;5007046;28;20548;-68
2022/07/06 02:36:54;;;;;;;27.70;25.90;;;18.50;64.20;;;;;;5007317;28;20873;-68
2022/07/06 02:39:21;;;;;;;27.20;25.70;;;18.40;64.40;;;;;;5005021;28;21082;-68
2022/07/06 02:41:48;;;;;;;29.37;27.60;;;18.50;64.30;;;;;;5005350;28;20560;-68
2022/07/06 02:44:15;;;;;;;27.27;25.67;;;18.50;64.30;;;;;;5001734;28;20548;-68
2022/07/06 02:46:43;;;;;;;27.50;26.00;;;18.40;64.60;;;;;;5006514;28;20457;-71
2022/07/06 02:49:10;;;;;;;27.23;25.63;;;18.40;64.60;;;;;;5005005;28;20520;-74
2022/07/06 02:51:37;;;;;;;27.10;25.27;;;18.40;64.80;;;;;;5007476;28;20544;-70
2022/07/06 02:54:04;;;;;;;26.93;25.20;;;18.30;65.00;;;;;;5005728;28;20461;-70
2022/07/06 02:56:31;;;;;;;27.87;26.07;;;18.30;65.00;;;;;;5005990;28;20461;-71
2022/07/06 02:58:58;;;;;;;25.97;24.57;;;18.40;64.90;;;;;;5006693;28;20494;-70
2022/07/06 03:01:25;;;;;;;29.50;27.70;;;18.40;65.00;;;;;;5005800;28;20465;-71
2022/07/06 03:03:53;;;;;;;28.60;26.70;;;18.30;65.10;;;;;;5005202;28;20465;-71
2022/07/06 03:06:20;;;;;;;27.07;25.50;;;18.30;65.30;;;;;;5002486;28;20480;-69
2022/07/06 03:08:47;;;;;;;27.30;25.73;;;18.20;65.90;;;;;;5006335;28;20485;-74
2022/07/06 03:11:14;;;;;;;30.43;28.63;;;18.20;66.10;;;;;;4999998;28;20580;-71
2022/07/06 03:13:41;;;;;;;28.13;26.47;;;18.20;66.40;;;;;;5003686;28;21281;-70
2022/07/06 03:16:08;;;;;;;26.70;25.00;;;18.20;66.30;;;;;;5001773;28;20543;-70
2022/07/06 03:18:34;;;;;;;27.53;25.70;;;18.10;66.20;;;;;;5004296;28;20489;-70
2022/07/06 03:21:03;;;;;;;27.50;25.80;;;18.10;66.30;;;;;;5004704;28;20464;-70
2022/07/06 03:23:31;;;;;;;32.43;30.60;;;18.10;66.10;;;;;;5007010;28;20461;-68
2022/07/06 03:25:58;;;;;;;29.60;27.90;;;18.10;66.40;;;;;;5002718;28;20596;-68
2022/07/06 03:28:25;;;;;;;30.33;28.63;;;18.10;66.50;;;;;;5005163;28;20477;-68
2022/07/06 03:30:52;;;;;;;31.80;30.00;;;18.10;66.60;;;;;;5003836;28;20461;-68
2022/07/06 03:33:19;;;;;;;29.77;28.07;;;18.10;66.90;;;;;;5005188;28;20463;-70
2022/07/06 03:35:46;;;;;;;27.87;26.20;;;18.00;67.40;;;;;;5003466;28;20499;-70
2022/07/06 03:38:14;;;;;;;27.47;25.77;;;18.00;67.50;;;;;;5005639;28;20608;-70
2022/07/06 03:40:41;;;;;;;29.00;27.23;;;17.90;68.10;;;;;;5000252;28;20597;-70
2022/07/06 03:43:08;;;;;;;28.07;26.30;;;17.80;68.60;;;;;;5006452;28;20463;-72
2022/07/06 03:45:36;;;;;;;27.47;25.73;;;17.80;68.50;;;;;;5003950;28;20473;-70
2022/07/06 03:48:03;;;;;;;27.57;26.00;;;17.80;68.80;;;;;;5003117;28;20568;-70
2022/07/06 03:50:30;;;;;;;27.20;25.60;;;17.80;68.90;;;;;;5003942;28;21456;-69
2022/07/06 03:52:57;;;;;;;35.70;33.90;;;17.80;68.90;;;;;;5004050;28;20464;-72
2022/07/06 03:55:25;;;;;;;30.80;28.90;;;17.80;68.80;;;;;;5004326;28;20557;-70
2022/07/06 03:57:52;;;;;;;28.00;26.20;;;17.80;68.70;;;;;;5007238;28;20487;-70
2022/07/06 04:00:19;;;;;;;28.43;26.67;;;17.90;69.10;;;;;;5004701;28;20551;-70
2022/07/06 04:02:46;;;;;;;29.73;28.03;;;18.10;68.60;;;;;;5002121;28;20461;-70
2022/07/06 04:05:13;;;;;;;30.93;28.93;;;18.40;67.60;;;;;;5002894;28;21009;-70
2022/07/06 04:07:40;;;;;;;28.37;26.60;;;18.40;67.40;;;;;;5006480;28;20481;-70
2022/07/06 04:10:08;;;;;;;27.80;26.20;;;18.50;67.10;;;;;;5004784;28;20456;-71
2022/07/06 04:12:42;;;;;;;31.67;29.87;;;18.60;66.70;;;;;;5006402;28;20576;-71
2022/07/06 04:15:10;;;;;;;28.07;26.27;;;18.60;66.70;;;;;;5003568;28;20640;-70
2022/07/06 04:17:55;;;;;;;27.90;26.27;;;18.50;67.40;;;;;;5006996;28;20564;-71
2022/07/06 04:20:24;;;;;;;28.83;26.20;;;18.50;67.60;;;;;;5004225;28;20467;-70
2022/07/06 04:22:52;;;;;;;27.90;26.30;;;18.50;67.30;;;;;;5007941;28;20488;-70
2022/07/06 04:25:19;;;;;;;29.47;27.57;;;18.60;66.80;;;;;;5004687;28;20676;-70
2022/07/06 04:27:47;;;;;;;28.43;26.83;;;18.50;67.10;;;;;;5008476;28;20476;-72
2022/07/06 04:30:14;;;;;;;28.03;26.33;;;18.30;67.60;;;;;;5008853;28;20550;-70
2022/07/06 04:32:41;;;;;;;29.60;27.70;;;18.30;68.20;;;;;;5006701;28;20469;-70
2022/07/06 04:35:09;;;;;;;30.50;28.50;;;18.40;68.00;;;;;;5004430;28;20981;-70
2022/07/06 04:37:36;;;;;;;29.23;27.43;;;18.40;67.70;;;;;;5007969;28;20476;-69
2022/07/06 04:40:03;;;;;;;29.77;27.57;;;18.50;67.30;;;;;;5007878;28;20544;-70
2022/07/06 04:42:30;;;;;;;32.60;30.60;;;18.50;67.60;;;;;;5001021;28;20501;-70
2022/07/06 04:44:58;;;;;;;29.30;27.60;;;18.60;67.60;;;;;;5006400;28;20488;-75
2022/07/06 04:47:25;;;;;;;31.30;29.30;;;18.60;67.10;;;;;;5006390;28;20567;-72
2022/07/06 04:49:52;;;;;;;32.30;30.00;;;18.70;66.80;;;;;;4999752;28;20515;-76
2022/07/06 04:52:19;;;;;;;30.10;28.20;;;18.70;67.10;;;;;;5007094;28;20549;-75
2022/07/06 04:54:46;;;;;;;29.37;27.43;;;18.80;66.80;;;;;;5008363;28;20552;-70
2022/07/06 04:57:13;;;;;;;31.10;29.30;;;18.90;66.70;;;;;;5008916;28;20556;-71
2022/07/06 04:59:40;;;;;;;30.23;28.43;;;18.90;66.40;;;;;;5007782;28;20535;-70
2022/07/06 05:02:08;;;;;;;32.77;30.47;;;18.90;66.40;;;;;;5009441;28;20970;-71
2022/07/06 05:04:35;;;;;;;29.87;28.17;;;18.80;66.80;;;;;;5005315;28;20552;-72
2022/07/06 05:07:02;;;;;;;30.90;28.83;;;18.80;67.00;;;;;;5008861;28;20477;-71
2022/07/06 05:09:29;;;;;;;31.40;29.60;;;18.60;67.70;;;;;;5009471;28;20466;-71
2022/07/06 05:11:56;;;;;;;29.90;28.20;;;18.20;68.80;;;;;;5009013;28;20469;-70
2022/07/06 05:14:23;;;;;;;32.33;30.33;;;18.30;68.80;;;;;;5006443;28;20595;-70
2022/07/06 05:16:50;;;;;;;31.30;29.20;;;18.00;69.60;;;;;;5003892;28;20549;-71
2022/07/06 05:19:18;;;;;;;30.60;28.73;;;17.80;70.30;;;;;;5003954;28;20536;-70
2022/07/06 05:21:45;;;;;;;31.13;29.23;;;17.70;71.00;;;;;;5008496;28;20461;-70
2022/07/06 05:24:12;;;;;;;30.00;28.20;;;17.90;70.60;;;;;;5008289;28;20547;-71
2022/07/06 05:26:39;;;;;;;32.60;30.70;;;17.80;70.50;;;;;;5007238;28;20517;-71
2022/07/06 05:29:06;;;;;;;32.30;30.30;;;17.70;71.30;;;;;;5004728;28;20901;-70
2022/07/06 05:31:33;;;;;;;33.40;31.10;;;17.70;71.20;;;;;;5006657;28;20961;-73
2022/07/06 05:34:00;;;;;;;32.50;30.50;;;18.10;70.30;;;;;;5003724;28;20789;-73
2022/07/06 05:36:28;;;;;;;33.93;31.90;;;18.10;70.30;;;;;;5006699;28;20446;-71
2022/07/06 05:38:55;;;;;;;35.80;33.70;;;18.10;70.20;;;;;;5006911;28;20986;-71
2022/07/06 05:41:23;;;;;;;31.70;29.60;;;18.20;70.20;;;;;;5004628;28;20580;-70
2022/07/06 05:43:49;;;;;;;31.70;29.70;;;18.20;70.00;;;;;;5009372;28;20461;-72
2022/07/06 05:46:16;;;;;;;32.17;30.07;;;18.30;69.90;;;;;;5009513;28;20998;-70
2022/07/06 05:51:29;;;;;;;31.67;29.57;;;18.40;69.10;;;;;;5005556;28;20596;-69
2022/07/06 05:53:56;;;;;;;33.50;31.43;;;18.30;69.10;;;;;;5009107;28;20935;-69
2022/07/06 05:56:23;;;;;;;33.23;31.30;;;18.20;69.30;;;;;;5009475;28;20477;-68
2022/07/06 05:58:50;;;;;;;33.10;31.10;;;18.30;69.40;;;;;;5007337;28;20564;-69
2022/07/06 06:01:17;;;;;;;31.23;29.20;;;18.30;69.10;;;;;;5008653;28;20544;-68
2022/07/06 06:03:44;;;;;;;30.80;28.90;;;18.00;69.90;;;;;;5010149;28;20461;-68
2022/07/06 06:06:11;;;;;;;30.83;29.03;;;18.00;70.30;;;;;;5009860;28;20489;-68
2022/07/06 06:08:39;;;;;;;30.50;28.80;;;17.90;70.50;;;;;;5007927;28;20592;-68
2022/07/06 06:11:06;;;;;;;31.10;29.20;;;17.90;70.80;;;;;;5008933;28;20540;-69
2022/07/06 06:13:33;;;;;;;29.67;27.87;;;18.00;70.60;;;;;;5009470;28;20588;-68
2022/07/06 06:16:00;;;;;;;33.07;31.17;;;18.10;70.40;;;;;;5008488;28;20928;-69
2022/07/06 06:18:27;;;;;;;31.00;29.10;;;18.30;69.80;;;;;;5009775;28;20469;-68
2022/07/06 06:20:54;;;;;;;35.07;33.07;;;18.60;67.90;;;;;;5006348;28;20477;-69
2022/07/06 06:23:21;;;;;;;30.93;28.43;;;18.80;67.90;;;;;;5008921;28;20556;-68
2022/07/06 06:25:49;;;;;;;31.23;29.03;;;19.00;67.20;;;;;;5007624;28;20564;-68
2022/07/06 06:28:16;;;;;;;30.50;28.80;;;19.30;65.80;;;;;;5008836;28;20560;-69
2022/07/06 06:30:43;;;;;;;35.17;33.17;;;19.30;65.50;;;;;;5006011;28;20507;-67
2022/07/06 06:33:12;;;;;;;30.67;28.50;;;19.50;65.30;;;;;;5008112;28;20467;-69
2022/07/06 06:35:42;;;;;;;31.27;29.47;;;19.60;65.00;;;;;;5006666;28;20458;-70
2022/07/06 06:38:09;;;;;;;29.90;28.20;;;19.90;64.10;;;;;;5009758;28;20525;-68
2022/07/06 06:40:37;;;;;;;31.60;29.50;;;19.90;64.00;;;;;;5007433;28;20581;-68
2022/07/06 06:43:05;;;;;;;30.60;28.40;;;19.90;63.30;;;;;;5008924;28;20473;-69
2022/07/06 06:45:32;;;;;;;30.70;28.90;;;19.90;63.20;;;;;;5001933;28;20568;-71
2022/07/06 06:47:59;;;;;;;33.10;31.03;;;19.70;64.20;;;;;;5008399;28;20852;-70
2022/07/06 06:50:26;;;;;;;30.33;28.53;;;19.60;64.20;;;;;;5005535;28;20986;-68
2022/07/06 06:52:53;;;;;;;30.33;28.20;;;19.80;64.10;;;;;;5007109;28;20554;-67
2022/07/06 06:55:20;;;;;;;29.93;28.13;;;19.70;64.20;;;;;;5005505;28;20532;-68
2022/07/06 06:57:47;;;;;;;30.03;28.23;;;19.70;64.30;;;;;;5008329;28;20897;-68
2022/07/06 07:00:16;;;;;;;32.37;30.07;;;19.40;64.80;;;;;;5005907;28;20492;-68
2022/07/06 07:02:43;;;;;;;30.17;28.47;;;19.10;66.00;;;;;;5007505;28;20540;-68
2022/07/06 07:05:10;;;;;;;34.67;32.50;;;19.00;66.40;;;;;;5006538;28;20481;-68
2022/07/06 07:07:37;;;;;;;32.33;30.30;;;19.10;65.90;;;;;;5006104;28;20496;-68
2022/07/06 07:10:05;;;;;;;30.87;29.07;;;19.00;66.40;;;;;;5005742;28;20465;-68
2022/07/06 07:12:32;;;;;;;29.90;28.10;;;18.90;66.30;;;;;;5006545;28;20476;-68
2022/07/06 07:15:00;;;;;;;30.93;28.80;;;19.10;65.20;;;;;;5004260;28;21125;-68
2022/07/06 07:17:28;;;;;;;30.70;28.80;;;19.10;66.30;;;;;;5007419;28;20480;-67
2022/07/06 07:19:56;;;;;;;33.40;31.50;;;19.30;66.00;;;;;;4994545;28;20556;-68
2022/07/06 07:22:24;;;;;;;30.43;28.60;;;19.30;66.40;;;;;;5007391;28;20552;-68
2022/07/06 07:24:51;;;;;;;34.37;32.20;;;19.40;66.10;;;;;;5007000;28;20556;-68
2022/07/06 07:27:21;;;;;;;31.33;29.10;;;19.60;65.40;;;;;;5007863;28;20481;-68
2022/07/06 07:29:48;;;;;;;31.80;30.00;;;19.70;65.10;;;;;;4992892;28;20467;-68
2022/07/06 07:32:15;;;;;;;33.30;31.30;;;19.70;64.80;;;;;;5008190;28;20536;-67
2022/07/06 07:34:43;;;;;;;31.07;28.87;;;19.70;64.70;;;;;;5005710;28;20549;-68
2022/07/06 07:37:10;;;;;;;30.37;28.20;;;19.90;63.60;;;;;;5004307;28;20548;-71
2022/07/06 07:39:37;;;;;;;32.77;30.87;;;20.00;63.30;;;;;;5006270;28;20836;-69
2022/07/06 07:42:05;;;;;;;30.37;28.47;;;20.20;62.90;;;;;;5007784;28;20550;-71
2022/07/06 07:44:32;;;;;;;34.83;32.73;;;20.30;61.00;;;;;;5007195;28;20466;-71
2022/07/06 07:46:59;;;;;;;30.50;28.70;;;20.50;60.90;;;;;;5007854;28;20482;-71
2022/07/06 07:49:26;;;;;;;34.40;32.50;;;20.60;60.80;;;;;;5005728;28;20524;-72
2022/07/06 07:51:54;;;;;;;29.93;28.03;;;20.70;60.30;;;;;;5010576;28;20562;-70
2022/07/06 07:54:21;;;;;;;29.70;27.80;;;20.70;60.30;;;;;;5010899;28;20475;-71
2022/07/06 07:56:48;;;;;;;34.70;32.50;;;20.70;59.50;;;;;;5008665;28;20462;-72
2022/07/06 07:59:15;;;;;;;33.83;31.60;;;20.70;60.10;;;;;;5010015;28;20570;-68
2022/07/06 08:01:42;;;;;;;32.90;30.90;;;20.70;60.10;;;;;;5010137;28;20902;-69
2022/07/06 08:04:09;;;;;;;33.97;31.77;;;20.80;60.10;;;;;;5009327;28;20547;-70
2022/07/06 08:06:36;;;;;;;30.17;28.27;;;20.70;59.70;;;;;;5003163;28;20565;-71
2022/07/06 08:09:07;;;;;;;29.80;28.10;;;20.80;59.50;;;;;;5011218;28;20478;-68
2022/07/06 08:11:34;;;;;;;31.53;29.50;;;20.90;59.60;;;;;;5006924;28;20482;-71
2022/07/06 08:14:01;;;;;;;31.23;29.33;;;21.00;59.60;;;;;;5008981;28;20555;-70
2022/07/06 08:16:28;;;;;;;31.97;30.17;;;20.90;59.40;;;;;;5012301;28;20479;-70
2022/07/06 08:18:55;;;;;;;31.73;29.63;;;20.90;59.60;;;;;;5011480;28;20659;-70
2022/07/06 08:21:22;;;;;;;33.10;31.10;;;21.20;59.50;;;;;;5009755;28;20461;-70
2022/07/06 08:23:49;;;;;;;31.63;29.70;;;21.40;59.50;;;;;;5012801;28;20546;-70
2022/07/06 08:26:17;;;;;;;34.50;32.30;;;21.50;59.40;;;;;;5010779;28;20467;-70
2022/07/06 08:28:44;;;;;;;31.73;29.73;;;21.40;59.20;;;;;;5012173;28;20850;-70
2022/07/06 08:31:11;;;;;;;32.50;30.20;;;21.30;59.40;;;;;;5010281;28;20457;-70
2022/07/06 08:33:38;;;;;;;36.90;34.50;;;21.50;59.70;;;;;;5010740;28;20540;-71
2022/07/06 08:36:05;;;;;;;37.00;34.40;;;21.60;59.40;;;;;;5010814;28;20456;-70
2022/07/06 08:38:32;;;;;;;32.00;29.83;;;21.70;59.70;;;;;;5012085;28;20489;-70
2022/07/06 08:40:59;;;;;;;36.17;33.97;;;21.80;59.70;;;;;;5010640;28;20499;-70
2022/07/06 08:43:27;;;;;;;31.17;29.10;;;21.80;59.90;;;;;;5010874;28;20456;-70
2022/07/06 08:45:55;;;;;;;31.60;29.53;;;21.50;60.10;;;;;;5010936;28;20457;-70
2022/07/06 08:48:25;;;;;;;32.27;30.00;;;21.10;61.40;;;;;;5010035;28;20505;-70
2022/07/06 08:50:53;;;;;;;32.07;30.07;;;21.30;61.10;;;;;;5010413;28;20449;-70
2022/07/06 08:53:21;;;;;;;31.30;29.47;;;21.20;61.10;;;;;;5010076;28;20843;-70
2022/07/06 08:55:50;;;;;;;30.87;28.97;;;21.30;60.90;;;;;;5010159;28;20959;-72
2022/07/06 08:58:17;;;;;;;29.73;27.73;;;21.60;60.60;;;;;;5011630;28;20500;-70
2022/07/06 09:00:46;;;;;;;31.87;29.87;;;21.80;60.10;;;;;;5010874;28;20568;-71
2022/07/06 09:03:13;;;;;;;33.50;31.40;;;21.90;59.70;;;;;;5011199;28;20850;-70
2022/07/06 09:05:43;;;;;;;32.07;30.27;;;22.00;59.30;;;;;;5008684;28;20796;-72
2022/07/06 09:08:11;;;;;;;31.77;29.77;;;22.10;59.00;;;;;;5007138;28;20496;-71
2022/07/06 09:10:37;;;;;;;33.47;31.20;;;22.20;58.80;;;;;;5008335;28;20466;-70
2022/07/06 09:13:05;;;;;;;34.77;32.53;;;22.30;58.40;;;;;;5009733;28;20539;-71
2022/07/06 09:15:33;;;;;;;34.80;32.60;;;22.40;58.40;;;;;;5009687;28;20546;-69
2022/07/06 09:18:02;;;;;;;32.93;30.27;;;22.30;58.70;;;;;;5009029;28;20849;-71
2022/07/06 09:20:30;;;;;;;32.30;30.13;;;22.30;58.80;;;;;;5008202;28;20466;-71
2022/07/06 09:23:00;;;;;;;32.40;30.30;;;22.10;59.00;;;;;;5011475;28;20465;-70
2022/07/06 09:25:28;;;;;;;36.13;33.93;;;21.90;59.40;;;;;;5007113;28;20468;-71
2022/07/06 09:27:57;;;;;;;32.43;30.43;;;21.90;59.40;;;;;;5008835;28;20481;-71
2022/07/06 09:30:25;;;;;;;31.30;29.40;;;22.00;59.10;;;;;;5009982;28;20457;-73
2022/07/06 09:32:54;;;;;;;32.00;29.60;;;22.20;58.70;;;;;;5009216;28;20465;-70
2022/07/06 09:35:25;;;;;;;35.37;33.07;;;22.20;58.30;;;;;;5010369;28;20459;-70
2022/07/06 09:38:02;;;;;;;32.27;30.17;;;22.10;58.60;;;;;;5007529;28;20477;-71
2022/07/06 09:40:31;;;;;;;34.87;32.77;;;22.00;58.50;;;;;;5009693;28;20463;-69
2022/07/06 09:43:15;;;;;;;31.13;29.23;;;21.90;58.00;;;;;;5008745;28;20550;-69
2022/07/06 09:45:44;;;;;;;32.30;30.30;;;21.90;57.90;;;;;;5008980;28;20542;-71
2022/07/06 09:48:12;;;;;;;31.70;29.80;;;22.00;57.60;;;;;;5007835;28;20597;-70
2022/07/06 09:50:50;;;;;;;31.00;28.90;;;22.00;57.70;;;;;;5007248;28;20570;-70
2022/07/06 09:53:19;;;;;;;34.13;31.93;;;22.10;57.80;;;;;;5008686;28;20489;-70
2022/07/06 09:55:47;;;;;;;34.90;32.27;;;22.20;57.80;;;;;;5008939;28;20984;-73
2022/07/06 09:58:15;;;;;;;31.20;29.20;;;22.00;58.80;;;;;;5006915;28;20560;-70
2022/07/06 10:00:42;;;;;;;32.30;30.20;;;22.20;58.40;;;;;;5006572;28;20463;-71
2022/07/06 10:03:10;;;;;;;34.63;32.47;;;22.30;58.30;;;;;;5007568;28;20470;-72
2022/07/06 10:05:38;;;;;;;37.33;35.03;;;22.50;57.60;;;;;;5006616;28;20497;-73
2022/07/06 10:08:09;;;;;;;31.70;29.70;;;22.50;57.30;;;;;;5008549;28;20478;-70
2022/07/06 10:10:38;;;;;;;31.30;29.23;;;22.30;58.30;;;;;;5007890;28;20459;-71
2022/07/06 10:13:06;;;;;;;31.20;29.10;;;22.30;58.80;;;;;;5007873;28;20546;-71
2022/07/06 10:15:34;;;;;;;31.00;29.00;;;22.70;58.10;;;;;;5006847;28;20469;-71
2022/07/06 10:18:03;;;;;;;31.23;29.23;;;23.10;57.30;;;;;;5009448;28;20503;-71
2022/07/06 10:20:32;;;;;;;31.77;29.80;;;23.00;57.20;;;;;;5001771;28;20456;-72
2022/07/06 10:23:01;;;;;;;31.30;29.30;;;22.90;56.50;;;;;;5004640;28;20529;-70
2022/07/06 10:25:29;;;;;;;30.80;29.00;;;22.80;57.30;;;;;;5004781;28;20464;-70
2022/07/06 10:27:57;;;;;;;31.60;29.40;;;23.00;56.40;;;;;;5003638;28;20498;-70
2022/07/06 10:30:25;;;;;;;32.37;30.17;;;23.00;56.10;;;;;;4998659;28;20549;-71
2022/07/06 10:32:52;;;;;;;30.77;28.90;;;22.90;57.10;;;;;;5010970;28;20998;-70
2022/07/06 10:35:20;;;;;;;31.40;29.50;;;23.10;56.20;;;;;;4997516;28;20470;-68
2022/07/06 10:38:03;;;;;;;30.40;28.30;;;22.80;57.60;;;;;;5002333;28;20478;-68
2022/07/06 10:43:19;;;;;;;31.03;28.93;;;22.70;58.30;;;;;;5005732;28;21216;-70
2022/07/06 10:45:53;;;;;;;31.37;29.53;;;22.90;57.50;;;;;;5007761;28;20558;-69
2022/07/06 10:48:22;;;;;;;31.73;29.93;;;23.00;57.60;;;;;;5000917;28;20842;-70
2022/07/06 10:50:51;;;;;;;32.57;30.27;;;23.00;57.40;;;;;;5002818;28;20479;-70
2022/07/06 10:53:22;;;;;;;33.70;31.70;;;22.90;57.30;;;;;;5008063;28;20463;-71
2022/07/06 10:55:52;;;;;;;31.50;29.40;;;23.10;57.00;;;;;;5004361;28;20999;-70
2022/07/06 10:58:42;;;;;;;30.83;28.97;;;23.40;56.30;;;;;;5006776;28;20471;-71
2022/07/06 11:01:10;;;;;;;32.93;30.83;;;23.30;55.90;;;;;;5002111;28;20525;-72
2022/07/06 11:03:41;;;;;;;31.30;29.30;;;23.20;57.00;;;;;;5004222;28;20460;-70
2022/07/06 11:06:12;;;;;;;33.93;31.73;;;23.20;57.20;;;;;;5004754;28;20460;-70
2022/07/06 11:08:48;;;;;;;31.70;29.60;;;23.00;56.90;;;;;;5005338;28;21286;-70
2022/07/06 11:11:18;;;;;;;31.20;29.00;;;22.70;57.70;;;;;;5001096;28;20470;-72
2022/07/06 11:13:50;;;;;;;31.80;29.80;;;23.00;57.60;;;;;;5006963;28;20462;-70
2022/07/06 11:16:18;;;;;;;33.27;31.27;;;23.40;56.40;;;;;;5004658;28;20475;-74
2022/07/06 11:18:49;;;;;;;34.07;31.77;;;23.50;56.20;;;;;;5006003;28;20476;-71
2022/07/06 11:21:17;;;;;;;33.00;31.00;;;23.30;56.70;;;;;;5004877;28;20461;-71
2022/07/06 11:23:47;;;;;;;36.77;34.57;;;23.60;56.40;;;;;;5002947;28;20582;-70
2022/07/06 11:26:16;;;;;;;33.27;31.03;;;23.40;56.00;;;;;;5003505;28;20472;-69
2022/07/06 11:28:47;;;;;;;33.77;31.47;;;23.20;56.80;;;;;;5009978;28;20482;-70
2022/07/06 11:31:16;;;;;;;34.50;32.20;;;23.60;56.40;;;;;;5009594;28;20961;-71
2022/07/06 11:33:46;;;;;;;37.57;34.80;;;23.60;55.90;;;;;;5009777;28;20468;-71
2022/07/06 11:36:15;;;;;;;32.43;30.10;;;23.20;56.70;;;;;;5008730;28;20459;-71
2022/07/06 11:38:42;;;;;;;34.43;31.87;;;23.20;56.80;;;;;;5003341;28;20476;-71
2022/07/06 11:41:11;;;;;;;31.57;29.57;;;23.20;56.80;;;;;;5005644;28;20525;-70
2022/07/06 11:43:42;;;;;;;34.70;32.50;;;23.20;56.90;;;;;;5009735;28;20543;-71
2022/07/06 11:46:26;;;;;;;36.17;33.77;;;22.90;57.70;;;;;;5004150;28;20534;-73
2022/07/06 11:48:54;;;;;;;31.97;30.03;;;22.80;57.90;;;;;;5006726;28;20522;-72
2022/07/06 11:51:22;;;;;;;36.13;33.63;;;23.10;57.50;;;;;;5007231;28;20562;-69
2022/07/06 11:53:51;;;;;;;31.40;29.40;;;23.40;56.60;;;;;;5010116;28;20556;-72
2022/07/06 11:56:21;;;;;;;35.47;33.10;;;23.50;56.30;;;;;;5006300;28;20457;-73
2022/07/06 11:58:52;;;;;;;31.93;29.80;;;23.50;56.60;;;;;;5004604;28;21070;-71
2022/07/06 12:01:19;;;;;;;35.70;33.60;;;23.80;56.30;;;;;;5007692;28;20488;-71
2022/07/06 12:03:46;;;;;;;33.53;31.20;;;23.80;55.40;;;;;;5009607;28;20485;-71
2022/07/06 12:06:18;;;;;;;32.77;30.73;;;23.40;56.10;;;;;;5007740;28;20458;-71
2022/07/06 12:08:47;;;;;;;32.70;30.70;;;23.50;56.20;;;;;;5008879;28;20477;-70
2022/07/06 12:11:26;;;;;;;35.40;33.23;;;23.90;55.40;;;;;;5005849;28;20471;-71
2022/07/06 12:13:56;;;;;;;35.87;33.37;;;24.30;54.10;;;;;;5001071;28;20822;-71
2022/07/06 12:16:29;;;;;;;37.20;34.60;;;24.40;53.90;;;;;;5009338;28;20457;-73
2022/07/06 12:18:56;;;;;;;35.37;32.90;;;24.40;54.20;;;;;;5009173;28;21011;-71
2022/07/06 12:21:23;;;;;;;37.77;35.53;;;24.70;53.60;;;;;;5007196;28;20523;-71
2022/07/06 12:23:53;;;;;;;36.90;34.70;;;24.60;53.80;;;;;;5008788;28;20465;-71
2022/07/06 12:26:24;;;;;;;37.77;35.37;;;24.20;53.90;;;;;;5006431;28;20776;-71
2022/07/06 12:29:02;;;;;;;34.90;32.70;;;24.10;54.70;;;;;;5003657;28;20855;-71
2022/07/06 12:31:34;;;;;;;36.10;33.87;;;24.20;54.50;;;;;;5008560;28;21144;-71
2022/07/06 12:34:01;;;;;;;39.43;37.03;;;24.40;53.70;;;;;;5004730;28;20488;-71
2022/07/06 12:36:28;;;;;;;35.97;33.97;;;24.50;53.60;;;;;;5004683;28;21053;-71
2022/07/06 12:38:55;;;;;;;33.23;31.00;;;24.00;54.20;;;;;;5008291;28;20480;-70